createdAt,value
2018-03-22T00:01:02.879Z,98527.09
2018-03-22T00:02:08.460Z,98524.56
2018-03-22T00:04:21.224Z,98517.97
2018-03-22T00:05:26.818Z,98518.84
2018-03-22T00:06:32.562Z,98522.53
2018-03-22T00:07:37.906Z,98516.73
2018-03-22T00:08:44.011Z,98513.42
2018-03-22T00:09:49.455Z,98509.30
2018-03-22T00:10:54.997Z,98512.59
2018-03-22T00:12:00.560Z,98505.21
2018-03-22T00:13:06.181Z,98505.65
2018-03-22T00:14:11.441Z,98507.33
2018-03-22T00:15:17.147Z,98507.72
2018-03-22T00:16:23.510Z,98500.33
2018-03-22T00:17:30.517Z,98508.59
2018-03-22T00:18:36.331Z,98503.67
2018-03-22T00:19:41.574Z,98507.37
2018-03-22T00:20:47.050Z,98507.36
2018-03-22T00:21:52.442Z,98503.22
2018-03-22T00:22:57.906Z,98503.17
2018-03-22T00:24:03.560Z,98501.95
2018-03-22T00:25:10.025Z,98506.55
2018-03-22T00:26:15.414Z,98496.27
2018-03-22T00:27:20.756Z,98497.05
2018-03-22T00:28:26.743Z,98499.50
2018-03-22T00:29:32.195Z,98493.35
2018-03-22T00:30:39.032Z,98487.15
2018-03-22T00:31:44.696Z,98488.83
2018-03-22T00:32:50.061Z,98487.61
2018-03-22T00:33:57.047Z,98481.48
2018-03-22T00:35:02.619Z,98480.25
2018-03-22T00:36:08.150Z,98480.68
2018-03-22T00:37:14.099Z,98481.51
2018-03-22T00:38:21.015Z,98479.84
2018-03-22T00:39:26.783Z,98476.96
2018-03-22T00:40:33.209Z,98480.24
2018-03-22T00:41:38.816Z,98477.39
2018-03-22T00:42:44.397Z,98472.41
2018-03-22T00:43:50.611Z,98469.12
2018-03-22T00:44:56.087Z,98469.55
2018-03-22T00:46:02.878Z,98464.59
2018-03-22T00:47:08.428Z,98463.77
2018-03-22T00:48:13.876Z,98460.91
2018-03-22T00:49:19.721Z,98460.89
2018-03-22T00:50:25.595Z,98457.59
2018-03-22T00:51:32.150Z,98457.19
2018-03-22T00:52:38.164Z,98455.53
2018-03-22T00:53:43.735Z,98451.03
2018-03-22T00:54:49.696Z,98449.38
2018-03-22T00:55:55.544Z,98448.92
2018-03-22T00:57:02.117Z,98445.16
2018-03-22T00:58:08.778Z,98442.33
2018-03-22T00:59:14.871Z,98438.19
2018-03-22T01:00:20.877Z,98439.77
2018-03-22T01:01:26.582Z,98432.29
2018-03-22T01:02:33.638Z,98432.31
2018-03-22T01:03:39.532Z,98423.61
2018-03-22T01:04:45.832Z,98428.59
2018-03-22T01:05:51.338Z,98422.87
2018-03-22T01:06:57.366Z,98425.72
2018-03-22T01:08:04.097Z,98423.31
2018-03-22T01:09:09.600Z,98418.36
2018-03-22T01:10:15.600Z,98415.06
2018-03-22T01:11:21.308Z,98410.95
2018-03-22T01:12:27.406Z,98412.59
2018-03-22T01:13:33.344Z,98405.52
2018-03-22T01:14:38.925Z,98410.45
2018-03-22T01:15:44.775Z,98403.86
2018-03-22T01:16:50.987Z,98407.14
2018-03-22T01:18:00.180Z,98407.55
2018-03-22T01:19:05.912Z,98412.91
2018-03-22T01:20:12.007Z,98412.05
2018-03-22T01:21:17.832Z,98410.45
2018-03-22T01:22:24.483Z,98407.57
2018-03-22T01:23:31.695Z,98407.56
2018-03-22T01:24:38.687Z,98401.81
2018-03-22T01:25:45.777Z,98399.74
2018-03-22T01:26:52.245Z,98397.35
2018-03-22T01:27:58.009Z,98394.09
2018-03-22T01:29:04.273Z,98399.02
2018-03-22T01:30:16.018Z,98392.50
2018-03-22T01:31:21.651Z,98395.45
2018-03-22T01:32:27.544Z,98385.53
2018-03-22T01:33:33.654Z,98388.42
2018-03-22T01:34:39.938Z,98390.08
2018-03-22T01:35:47.221Z,98385.84
2018-03-22T01:36:53.806Z,98389.44
2018-03-22T01:37:59.857Z,98394.67
2018-03-22T01:39:05.914Z,98386.39
2018-03-22T01:40:11.492Z,98389.28
2018-03-22T01:41:17.522Z,98394.70
2018-03-22T01:42:23.354Z,98383.70
2018-03-22T01:43:29.722Z,98374.26
2018-03-22T01:44:35.439Z,98373.80
2018-03-22T01:45:41.262Z,98377.19
2018-03-22T01:46:47.494Z,98371.45
2018-03-22T01:47:52.998Z,98373.16
2018-03-22T01:48:59.873Z,98363.23
2018-03-22T01:50:07.532Z,98369.37
2018-03-22T01:51:13.915Z,98368.13
2018-03-22T01:52:20.475Z,98359.89
2018-03-22T01:53:28.001Z,98359.07
2018-03-22T01:54:33.838Z,98361.91
2018-03-22T01:55:39.512Z,98356.50
2018-03-22T01:56:45.393Z,98349.98
2018-03-22T01:57:50.996Z,98350.38
2018-03-22T01:58:57.322Z,98347.44
2018-03-22T02:00:04.870Z,98345.74
2018-03-22T02:01:12.258Z,98347.75
2018-03-22T02:02:20.460Z,98344.88
2018-03-22T02:03:26.292Z,98346.06
2018-03-22T02:04:31.778Z,98342.84
2018-03-22T02:05:37.738Z,98339.56
2018-03-22T02:06:44.684Z,98338.77
2018-03-22T02:07:50.677Z,98340.06
2018-03-22T02:08:56.958Z,98338.45
2018-03-22T02:10:04.027Z,98338.80
2018-03-22T02:11:10.786Z,98340.98
2018-03-22T02:12:16.431Z,98330.30
2018-03-22T02:13:24.109Z,98332.78
2018-03-22T02:14:30.276Z,98328.66
2018-03-22T02:15:37.906Z,98333.19
2018-03-22T02:16:44.291Z,98325.04
2018-03-22T02:17:49.980Z,98320.11
2018-03-22T02:18:56.365Z,98320.83
2018-03-22T02:20:02.350Z,98322.09
2018-03-22T02:21:07.886Z,98323.81
2018-03-22T02:22:13.649Z,98324.67
2018-03-22T02:23:19.366Z,98325.91
2018-03-22T02:24:26.229Z,98323.42
2018-03-22T02:25:32.692Z,98326.75
2018-03-22T02:26:39.543Z,98319.80
2018-03-22T02:27:45.710Z,98321.87
2018-03-22T02:28:52.343Z,98318.98
2018-03-22T02:29:57.832Z,98316.09
2018-03-22T02:31:03.437Z,98311.50
2018-03-22T02:32:09.782Z,98306.12
2018-03-22T02:33:15.341Z,98306.95
2018-03-22T02:34:20.751Z,98300.75
2018-03-22T02:35:28.661Z,98296.20
2018-03-22T02:36:34.451Z,98297.74
2018-03-22T02:37:39.921Z,98297.70
2018-03-22T02:38:47.779Z,98295.16
2018-03-22T02:39:54.405Z,98292.41
2018-03-22T02:41:05.890Z,98290.34
2018-03-22T02:42:11.935Z,98286.28
2018-03-22T02:43:17.519Z,98283.34
2018-03-22T02:44:24.672Z,98284.58
2018-03-22T02:45:31.306Z,98284.98
2018-03-22T02:46:36.878Z,98282.96
2018-03-22T02:47:42.326Z,98277.59
2018-03-22T02:48:49.628Z,98267.27
2018-03-22T02:49:55.424Z,98273.44
2018-03-22T02:51:02.305Z,98265.55
2018-03-22T02:52:08.029Z,98262.64
2018-03-22T02:53:13.542Z,98262.70
2018-03-22T02:54:19.928Z,98260.27
2018-03-22T02:55:27.021Z,98260.73
2018-03-22T02:56:32.508Z,98253.78
2018-03-22T02:57:38.962Z,98257.42
2018-03-22T02:58:44.512Z,98255.72
2018-03-22T02:59:49.836Z,98250.45
2018-03-22T03:00:55.040Z,98244.67
2018-03-22T03:02:00.814Z,98252.00
2018-03-22T03:03:08.199Z,98245.77
2018-03-22T03:04:13.349Z,98243.23
2018-03-22T03:05:19.095Z,98240.77
2018-03-22T03:06:24.634Z,98225.80
2018-03-22T03:07:30.827Z,98236.86
2018-03-22T03:08:36.233Z,98238.06
2018-03-22T03:09:41.321Z,98235.53
2018-03-22T03:10:48.277Z,98235.88
2018-03-22T03:11:54.400Z,98230.92
2018-03-22T03:13:01.398Z,98229.33
2018-03-22T03:14:06.393Z,98227.16
2018-03-22T03:15:13.628Z,98228.36
2018-03-22T03:16:18.740Z,98224.34
2018-03-22T03:17:24.565Z,98231.74
2018-03-22T03:18:29.936Z,98224.34
2018-03-22T03:19:35.365Z,98221.07
2018-03-22T03:20:41.096Z,98217.80
2018-03-22T03:21:46.192Z,98212.44
2018-03-22T03:22:51.382Z,98207.41
2018-03-22T03:23:57.690Z,98198.73
2018-03-22T03:25:04.840Z,98207.84
2018-03-22T03:26:10.683Z,98190.89
2018-03-22T03:27:17.326Z,98195.89
2018-03-22T03:28:22.613Z,98186.39
2018-03-22T03:29:28.575Z,98187.23
2018-03-22T03:30:34.158Z,98181.47
2018-03-22T03:31:39.751Z,98180.16
2018-03-22T03:32:45.508Z,98182.59
2018-03-22T03:33:51.101Z,98178.22
2018-03-22T03:34:56.588Z,98177.86
2018-03-22T03:36:02.190Z,98176.02
2018-03-22T03:37:07.624Z,98171.78
2018-03-22T03:38:12.751Z,98167.16
2018-03-22T03:39:18.770Z,98170.50
2018-03-22T03:40:23.565Z,98165.90
2018-03-22T03:41:28.494Z,98165.94
2018-03-22T03:42:34.023Z,98160.91
2018-03-22T03:43:39.772Z,98160.55
2018-03-22T03:44:45.466Z,98161.81
2018-03-22T03:45:50.460Z,98161.44
2018-03-22T03:46:56.288Z,98161.42
2018-03-22T03:48:01.490Z,98161.77
2018-03-22T03:49:06.725Z,98153.94
2018-03-22T03:50:12.219Z,98158.05
2018-03-22T03:51:17.500Z,98148.09
2018-03-22T03:52:24.103Z,98144.73
2018-03-22T03:53:29.142Z,98142.98
2018-03-22T03:54:34.280Z,98144.30
2018-03-22T03:55:39.491Z,98143.65
2018-03-22T03:56:46.249Z,98135.86
2018-03-22T03:57:51.905Z,98135.78
2018-03-22T03:58:57.132Z,98135.58
2018-03-22T04:00:02.148Z,98133.47
2018-03-22T04:01:09.273Z,98133.45
2018-03-22T04:02:14.386Z,98127.38
2018-03-22T04:03:19.557Z,98129.98
2018-03-22T04:04:25.092Z,98125.98
2018-03-22T04:05:30.560Z,98122.59
2018-03-22T04:06:36.839Z,98123.36
2018-03-22T04:07:42.080Z,98122.90
2018-03-22T04:08:47.177Z,98124.05
2018-03-22T04:09:52.336Z,98119.92
2018-03-22T04:10:59.148Z,98125.69
2018-03-22T04:12:06.414Z,98116.61
2018-03-22T04:13:11.920Z,98116.25
2018-03-22T04:14:17.317Z,98113.42
2018-03-22T04:15:23.378Z,98106.38
2018-03-22T04:16:28.425Z,98103.91
2018-03-22T04:17:34.853Z,98106.84
2018-03-22T04:18:40.778Z,98102.61
2018-03-22T04:19:47.207Z,98102.22
2018-03-22T04:20:53.149Z,98102.73
2018-03-22T04:21:58.703Z,98107.98
2018-03-22T04:23:04.323Z,98104.58
2018-03-22T04:24:10.737Z,98102.47
2018-03-22T04:25:16.630Z,98103.49
2018-03-22T04:26:22.550Z,98100.06
2018-03-22T04:27:28.628Z,98100.34
2018-03-22T04:28:34.891Z,98096.60
2018-03-22T04:29:39.873Z,98097.48
2018-03-22T04:30:45.283Z,98091.47
2018-03-22T04:31:49.977Z,98085.59
2018-03-22T04:32:56.525Z,98082.60
2018-03-22T04:34:01.505Z,98081.39
2018-03-22T04:35:06.607Z,98079.83
2018-03-22T04:36:11.563Z,98078.89
2018-03-22T04:37:16.847Z,98079.33
2018-03-22T04:38:21.697Z,98073.64
2018-03-22T04:39:26.612Z,98072.86
2018-03-22T04:40:31.978Z,98068.02
2018-03-22T04:41:37.319Z,98068.83
2018-03-22T04:42:43.282Z,98070.77
2018-03-22T04:43:49.989Z,98067.80
2018-03-22T04:44:55.083Z,98070.27
2018-03-22T04:46:00.368Z,98070.19
2018-03-22T04:47:05.364Z,98070.61
2018-03-22T04:48:10.374Z,98071.00
2018-03-22T04:49:16.405Z,98065.93
2018-03-22T04:50:21.774Z,98065.86
2018-03-22T04:51:27.822Z,98062.60
2018-03-22T04:52:33.326Z,98067.14
2018-03-22T04:53:39.712Z,98067.23
2018-03-22T04:54:45.099Z,98059.74
2018-03-22T04:55:50.389Z,98064.41
2018-03-22T04:56:56.269Z,98056.84
2018-03-22T04:58:01.257Z,98060.09
2018-03-22T04:59:06.269Z,98059.45
2018-03-22T05:00:11.694Z,98059.38
2018-03-22T05:01:17.054Z,98054.80
2018-03-22T05:02:23.023Z,98054.47
2018-03-22T05:03:30.478Z,98054.04
2018-03-22T05:04:36.038Z,98060.11
2018-03-22T05:05:41.692Z,98057.28
2018-03-22T05:06:47.092Z,98056.30
2018-03-22T05:07:52.230Z,98061.27
2018-03-22T05:08:57.911Z,98058.27
2018-03-22T05:10:04.327Z,98053.69
2018-03-22T05:11:10.784Z,98051.47
2018-03-22T05:12:17.037Z,98051.12
2018-03-22T05:13:23.116Z,98052.92
2018-03-22T05:14:30.049Z,98060.31
2018-03-22T05:15:35.569Z,98056.15
2018-03-22T05:16:41.269Z,98051.68
2018-03-22T05:17:47.732Z,98049.77
2018-03-22T05:18:52.888Z,98052.58
2018-03-22T05:19:58.143Z,98052.92
2018-03-22T05:21:03.352Z,98052.88
2018-03-22T05:22:10.633Z,98052.68
2018-03-22T05:23:16.249Z,98050.95
2018-03-22T05:24:21.620Z,98052.98
2018-03-22T05:25:27.188Z,98048.39
2018-03-22T05:26:35.753Z,98056.64
2018-03-22T05:27:42.277Z,98051.25
2018-03-22T05:28:47.565Z,98049.59
2018-03-22T05:29:52.946Z,98044.63
2018-03-22T05:30:58.770Z,98036.48
2018-03-22T05:32:04.155Z,98036.92
2018-03-22T05:33:09.597Z,98032.34
2018-03-22T05:34:15.373Z,98027.87
2018-03-22T05:35:21.712Z,98029.64
2018-03-22T05:36:27.315Z,98030.06
2018-03-22T05:37:32.876Z,98027.17
2018-03-22T05:38:38.499Z,98029.34
2018-03-22T05:39:44.672Z,98032.16
2018-03-22T05:40:52.208Z,98026.41
2018-03-22T05:41:58.097Z,98020.23
2018-03-22T05:43:04.893Z,98029.70
2018-03-22T05:44:10.892Z,98023.41
2018-03-22T05:45:16.594Z,98018.70
2018-03-22T05:46:24.285Z,98016.75
2018-03-22T05:47:30.404Z,98015.12
2018-03-22T05:48:36.965Z,98015.10
2018-03-22T05:49:42.601Z,98017.45
2018-03-22T05:50:48.394Z,98008.59
2018-03-22T05:51:54.643Z,98012.95
2018-03-22T05:53:00.497Z,98006.08
2018-03-22T05:54:06.159Z,98005.30
2018-03-22T05:55:11.917Z,98006.47
2018-03-22T05:56:17.571Z,97999.80
2018-03-22T05:57:23.294Z,97987.92
2018-03-22T05:58:31.546Z,97993.98
2018-03-22T05:59:38.959Z,97988.47
2018-03-22T06:00:45.789Z,97978.58
2018-03-22T06:01:51.700Z,97983.95
2018-03-22T06:02:57.468Z,97984.70
2018-03-22T06:04:03.156Z,97993.95
2018-03-22T06:05:09.003Z,97973.64
2018-03-22T06:06:16.102Z,97983.41
2018-03-22T06:07:21.765Z,97976.28
2018-03-22T06:08:27.274Z,97980.85
2018-03-22T06:09:32.830Z,97956.75
2018-03-22T06:10:39.362Z,97973.62
2018-03-22T06:11:44.906Z,97968.70
2018-03-22T06:12:51.921Z,97968.67
2018-03-22T06:13:57.668Z,97965.42
2018-03-22T06:15:03.429Z,97963.76
2018-03-22T06:16:09.696Z,97964.95
2018-03-22T06:17:16.292Z,97956.30
2018-03-22T06:18:22.738Z,97960.72
2018-03-22T06:19:28.899Z,97965.32
2018-03-22T06:20:35.094Z,97952.95
2018-03-22T06:21:40.651Z,97965.18
2018-03-22T06:22:46.088Z,97962.27
2018-03-22T06:23:51.475Z,97950.09
2018-03-22T06:24:56.897Z,97954.55
2018-03-22T06:26:02.941Z,97949.68
2018-03-22T06:27:09.562Z,97951.97
2018-03-22T06:28:16.525Z,97945.95
2018-03-22T06:29:24.228Z,97942.97
2018-03-22T06:30:30.641Z,97939.31
2018-03-22T06:31:36.728Z,97948.09
2018-03-22T06:32:43.323Z,97947.64
2018-03-22T06:33:49.269Z,97948.41
2018-03-22T06:34:54.666Z,97954.84
2018-03-22T06:36:00.505Z,97958.29
2018-03-22T06:37:06.243Z,97955.11
2018-03-22T06:38:12.128Z,97946.39
2018-03-22T06:39:18.534Z,97955.78
2018-03-22T06:40:24.600Z,97945.83
2018-03-22T06:41:30.208Z,97951.37
2018-03-22T06:42:35.920Z,97952.63
2018-03-22T06:43:41.944Z,97948.72
2018-03-22T06:44:49.534Z,97950.97
2018-03-22T06:45:55.300Z,97943.27
2018-03-22T06:47:01.911Z,97930.82
2018-03-22T06:48:08.382Z,97935.83
2018-03-22T06:49:13.916Z,97929.55
2018-03-22T06:50:19.520Z,97928.34
2018-03-22T06:51:25.733Z,97930.40
2018-03-22T06:52:31.843Z,97932.84
2018-03-22T06:53:37.896Z,97934.41
2018-03-22T06:54:43.198Z,97929.14
2018-03-22T06:55:48.795Z,97929.91
2018-03-22T06:56:55.312Z,97926.86
2018-03-22T06:58:01.476Z,97930.54
2018-03-22T06:59:07.178Z,97936.27
2018-03-22T07:00:12.597Z,97934.25
2018-03-22T07:01:18.327Z,97925.10
2018-03-22T07:02:23.863Z,97932.20
2018-03-22T07:03:29.679Z,97923.08
2018-03-22T07:04:37.197Z,97929.81
2018-03-22T07:05:42.786Z,97918.16
2018-03-22T07:06:48.248Z,97928.08
2018-03-22T07:07:56.055Z,97925.28
2018-03-22T07:09:01.460Z,97924.37
2018-03-22T07:10:09.023Z,97922.33
2018-03-22T07:11:15.390Z,97921.95
2018-03-22T07:12:22.555Z,97913.30
2018-03-22T07:13:29.428Z,97922.31
2018-03-22T07:14:35.001Z,97911.65
2018-03-22T07:15:40.397Z,97917.08
2018-03-22T07:16:45.774Z,97914.58
2018-03-22T07:17:51.685Z,97917.53
2018-03-22T07:18:56.927Z,97907.52
2018-03-22T07:20:02.610Z,97908.73
2018-03-22T07:21:08.431Z,97913.66
2018-03-22T07:22:13.937Z,97912.13
2018-03-22T07:23:19.538Z,97911.45
2018-03-22T07:24:25.442Z,97909.30
2018-03-22T07:25:30.963Z,97907.48
2018-03-22T07:26:36.752Z,97907.44
2018-03-22T07:27:42.204Z,97915.19
2018-03-22T07:28:49.655Z,97908.73
2018-03-22T07:29:55.674Z,97915.19
2018-03-22T07:31:01.679Z,97912.25
2018-03-22T07:32:07.564Z,97905.64
2018-03-22T07:33:13.595Z,97906.75
2018-03-22T07:34:18.909Z,97907.27
2018-03-22T07:35:24.711Z,97904.30
2018-03-22T07:36:31.077Z,97902.30
2018-03-22T07:37:36.967Z,97898.58
2018-03-22T07:38:42.398Z,97893.88
2018-03-22T07:39:48.339Z,97895.52
2018-03-22T07:40:54.747Z,97889.17
2018-03-22T07:42:00.021Z,97891.87
2018-03-22T07:43:09.786Z,97890.13
2018-03-22T07:44:19.927Z,97888.98
2018-03-22T07:45:25.315Z,97886.57
2018-03-22T07:46:31.744Z,97893.48
2018-03-22T07:47:38.207Z,97893.48
2018-03-22T07:48:44.166Z,97885.70
2018-03-22T07:49:50.016Z,97888.14
2018-03-22T07:50:55.611Z,97886.12
2018-03-22T07:52:02.074Z,97883.98
2018-03-22T07:53:07.536Z,97879.75
2018-03-22T07:54:13.150Z,97887.34
2018-03-22T07:55:20.035Z,97882.42
2018-03-22T07:56:26.186Z,97881.56
2018-03-22T07:57:31.820Z,97882.39
2018-03-22T07:58:37.447Z,97885.56
2018-03-22T07:59:42.889Z,97882.80
2018-03-22T08:00:49.747Z,97881.47
2018-03-22T08:01:55.660Z,97882.81
2018-03-22T08:03:03.489Z,97879.08
2018-03-22T08:04:08.908Z,97873.44
2018-03-22T08:05:14.580Z,97872.50
2018-03-22T08:06:19.957Z,97869.48
2018-03-22T08:07:25.782Z,97876.57
2018-03-22T08:08:31.222Z,97864.17
2018-03-22T08:09:36.940Z,97859.75
2018-03-22T08:10:42.508Z,97859.63
2018-03-22T08:11:49.165Z,97852.58
2018-03-22T08:12:54.964Z,97856.40
2018-03-22T08:14:01.535Z,97857.65
2018-03-22T08:15:06.872Z,97852.89
2018-03-22T08:16:12.794Z,97852.53
2018-03-22T08:17:18.201Z,97855.67
2018-03-22T08:18:23.754Z,97849.22
2018-03-22T08:19:28.865Z,97851.80
2018-03-22T08:20:36.629Z,97857.33
2018-03-22T08:21:42.565Z,97843.77
2018-03-22T08:22:49.066Z,97850.26
2018-03-22T08:23:55.253Z,97843.92
2018-03-22T08:25:00.506Z,97846.17
2018-03-22T08:26:06.171Z,97854.47
2018-03-22T08:27:11.856Z,97849.41
2018-03-22T08:28:18.837Z,97843.23
2018-03-22T08:29:23.952Z,97842.22
2018-03-22T08:30:31.218Z,97846.95
2018-03-22T08:31:36.652Z,97839.74
2018-03-22T08:32:42.880Z,97834.72
2018-03-22T08:33:48.576Z,97834.43
2018-03-22T08:34:54.041Z,97827.80
2018-03-22T08:35:59.884Z,97828.14
2018-03-22T08:37:05.344Z,97824.22
2018-03-22T08:38:10.840Z,97828.30
2018-03-22T08:39:17.844Z,97825.17
2018-03-22T08:40:23.689Z,97824.45
2018-03-22T08:41:29.308Z,97827.47
2018-03-22T08:42:34.780Z,97821.22
2018-03-22T08:43:41.117Z,97823.41
2018-03-22T08:44:46.516Z,97835.17
2018-03-22T08:45:52.428Z,97823.75
2018-03-22T08:46:57.801Z,97817.72
2018-03-22T08:48:03.245Z,97817.31
2018-03-22T08:49:08.635Z,97823.80
2018-03-22T08:50:14.081Z,97825.33
2018-03-22T08:51:20.169Z,97821.99
2018-03-22T08:52:25.920Z,97816.16
2018-03-22T08:53:31.318Z,97812.70
2018-03-22T08:54:36.838Z,97818.39
2018-03-22T08:55:42.097Z,97815.15
2018-03-22T08:56:48.346Z,97813.36
2018-03-22T08:57:53.876Z,97807.79
2018-03-22T08:59:00.883Z,97804.19
2018-03-22T09:00:06.163Z,97807.87
2018-03-22T09:01:11.555Z,97802.88
2018-03-22T09:02:17.983Z,97804.56
2018-03-22T09:03:23.441Z,97800.13
2018-03-22T09:04:29.758Z,97794.20
2018-03-22T09:05:35.054Z,97794.33
2018-03-22T09:06:40.363Z,97794.73
2018-03-22T09:07:45.769Z,97788.82
2018-03-22T09:08:53.351Z,97785.58
2018-03-22T09:09:58.705Z,97780.32
2018-03-22T09:11:04.382Z,97773.35
2018-03-22T09:12:09.813Z,97780.75
2018-03-22T09:13:15.075Z,97784.25
2018-03-22T09:14:20.457Z,97779.88
2018-03-22T09:15:25.675Z,97781.61
2018-03-22T09:16:31.866Z,97771.35
2018-03-22T09:17:37.596Z,97767.80
2018-03-22T09:18:43.030Z,97767.24
2018-03-22T09:19:49.114Z,97770.40
2018-03-22T09:20:54.354Z,97772.16
2018-03-22T09:21:59.491Z,97773.47
2018-03-22T09:23:04.708Z,97770.69
2018-03-22T09:24:11.773Z,97763.50
2018-03-22T09:25:17.135Z,97763.85
2018-03-22T09:26:23.166Z,97765.05
2018-03-22T09:27:28.369Z,97752.12
2018-03-22T09:28:34.206Z,97761.33
2018-03-22T09:29:41.037Z,97746.98
2018-03-22T09:30:47.032Z,97748.34
2018-03-22T09:31:52.304Z,97753.91
2018-03-22T09:32:58.197Z,97753.41
2018-03-22T09:34:05.022Z,97756.61
2018-03-22T09:35:10.272Z,97751.87
2018-03-22T09:36:16.429Z,97753.48
2018-03-22T09:37:23.746Z,97756.00
2018-03-22T09:38:30.968Z,97749.05
2018-03-22T09:39:39.268Z,97746.02
2018-03-22T09:40:44.519Z,97749.53
2018-03-22T09:41:51.149Z,97755.34
2018-03-22T09:42:56.451Z,97750.95
2018-03-22T09:44:05.299Z,97752.08
2018-03-22T09:45:13.446Z,97753.09
2018-03-22T09:46:19.291Z,97759.21
2018-03-22T09:47:25.541Z,97757.19
2018-03-22T09:51:17.524Z,97758.23
2018-03-22T09:52:23.606Z,97755.70
2018-03-22T09:53:29.336Z,97752.45
2018-03-22T09:54:34.498Z,97750.66
2018-03-22T09:55:41.304Z,97754.02
2018-03-22T09:56:47.154Z,97757.34
2018-03-22T09:57:52.850Z,97755.77
2018-03-22T09:58:58.988Z,97755.69
2018-03-22T10:00:04.661Z,97761.14
2018-03-22T10:01:10.239Z,97753.19
2018-03-22T10:02:17.294Z,97760.50
2018-03-22T10:03:22.606Z,97758.95
2018-03-22T10:04:28.510Z,97749.22
2018-03-22T10:05:33.764Z,97754.59
2018-03-22T10:06:39.003Z,97753.91
2018-03-22T10:07:44.629Z,97747.48
2018-03-22T10:08:49.868Z,97748.17
2018-03-22T10:09:55.264Z,97751.83
2018-03-22T10:11:02.097Z,97760.00
2018-03-22T10:12:07.974Z,97756.42
2018-03-22T10:13:13.371Z,97755.25
2018-03-22T10:14:19.563Z,97754.91
2018-03-22T10:15:26.061Z,97755.70
2018-03-22T10:16:31.891Z,97753.92
2018-03-22T10:17:37.927Z,97744.66
2018-03-22T10:18:45.429Z,97746.05
2018-03-22T10:19:51.012Z,97746.34
2018-03-22T10:20:56.718Z,97741.91
2018-03-22T10:22:03.655Z,97738.63
2018-03-22T10:23:08.798Z,97733.69
2018-03-22T10:24:14.542Z,97737.41
2018-03-22T10:25:19.701Z,97734.50
2018-03-22T10:26:24.730Z,97728.44
2018-03-22T10:27:30.118Z,97737.58
2018-03-22T10:28:36.644Z,97736.44
2018-03-22T10:29:42.404Z,97736.98
2018-03-22T10:30:48.769Z,97738.47
2018-03-22T10:31:53.987Z,97735.74
2018-03-22T10:32:59.262Z,97728.27
2018-03-22T10:34:05.924Z,97731.11
2018-03-22T10:35:11.634Z,97734.26
2018-03-22T10:36:17.342Z,97730.10
2018-03-22T10:37:23.835Z,97739.63
2018-03-22T10:38:29.093Z,97731.05
2018-03-22T10:39:34.716Z,97730.66
2018-03-22T10:40:40.031Z,97733.45
2018-03-22T10:41:45.597Z,97733.78
2018-03-22T10:42:51.914Z,97725.80
2018-03-22T10:43:57.789Z,97730.66
2018-03-22T10:45:03.863Z,97732.03
2018-03-22T10:46:10.703Z,97731.13
2018-03-22T10:47:16.016Z,97725.64
2018-03-22T10:48:21.225Z,97729.71
2018-03-22T10:49:26.395Z,97719.33
2018-03-22T10:50:32.953Z,97729.08
2018-03-22T10:51:39.437Z,97721.31
2018-03-22T10:52:45.335Z,97719.55
2018-03-22T10:53:50.965Z,97713.77
2018-03-22T10:54:57.494Z,97724.02
2018-03-22T10:56:04.420Z,97724.78
2018-03-22T10:57:10.286Z,97719.97
2018-03-22T10:58:15.574Z,97718.81
2018-03-22T10:59:20.804Z,97716.48
2018-03-22T11:00:30.042Z,97716.17
2018-03-22T11:01:39.692Z,97713.66
2018-03-22T11:02:49.987Z,97711.70
2018-03-22T11:03:55.246Z,97706.00
2018-03-22T11:05:00.703Z,97697.48
2018-03-22T11:06:05.886Z,97704.28
2018-03-22T11:07:11.403Z,97694.81
2018-03-22T11:08:17.328Z,97699.37
2018-03-22T11:09:23.619Z,97693.55
2018-03-22T11:10:29.073Z,97687.52
2018-03-22T11:11:34.265Z,97690.87
2018-03-22T11:12:39.812Z,97685.42
2018-03-22T11:13:45.266Z,97688.23
2018-03-22T11:14:50.658Z,97686.95
2018-03-22T11:15:56.737Z,97683.22
2018-03-22T11:17:02.665Z,97684.75
2018-03-22T11:18:09.637Z,97677.65
2018-03-22T11:19:15.377Z,97681.28
2018-03-22T11:20:20.634Z,97671.00
2018-03-22T11:21:25.786Z,97675.38
2018-03-22T11:22:31.811Z,97674.02
2018-03-22T11:23:37.059Z,97669.77
2018-03-22T11:24:43.641Z,97669.12
2018-03-22T11:25:49.491Z,97666.66
2018-03-22T11:26:54.910Z,97663.47
2018-03-22T11:28:00.195Z,97664.83
2018-03-22T11:29:06.160Z,97667.92
2018-03-22T11:30:11.651Z,97666.05
2018-03-22T11:31:17.750Z,97655.59
2018-03-22T11:32:23.276Z,97656.70
2018-03-22T11:33:29.247Z,97655.99
2018-03-22T11:34:34.305Z,97657.23
2018-03-22T11:35:39.940Z,97654.84
2018-03-22T11:36:45.524Z,97657.06
2018-03-22T11:37:50.605Z,97657.84
2018-03-22T11:38:55.991Z,97654.95
2018-03-22T11:40:01.231Z,97652.17
2018-03-22T11:41:06.733Z,97641.83
2018-03-22T11:42:14.034Z,97645.45
2018-03-22T11:43:21.172Z,97642.80
2018-03-22T11:44:27.812Z,97641.36
2018-03-22T11:45:33.089Z,97648.09
2018-03-22T11:46:38.383Z,97643.19
2018-03-22T11:47:43.731Z,97633.88
2018-03-22T11:48:49.502Z,97641.16
2018-03-22T11:49:55.209Z,97639.84
2018-03-22T11:51:01.321Z,97642.25
2018-03-22T11:52:07.623Z,97644.89
2018-03-22T11:53:13.619Z,97647.00
2018-03-22T11:54:19.486Z,97640.20
2018-03-22T11:55:25.881Z,97640.38
2018-03-22T11:56:31.665Z,97643.59
2018-03-22T11:57:37.040Z,97641.95
2018-03-22T11:58:42.293Z,97643.55
2018-03-22T11:59:47.621Z,97643.41
2018-03-22T12:00:52.829Z,97646.95
2018-03-22T12:01:58.732Z,97642.11
2018-03-22T12:03:04.723Z,97633.74
2018-03-22T12:04:09.950Z,97631.41
2018-03-22T12:05:15.068Z,97620.75
2018-03-22T12:06:20.259Z,97628.36
2018-03-22T12:07:25.504Z,97631.00
2018-03-22T12:08:30.991Z,97628.20
2018-03-22T12:09:36.670Z,97621.19
2018-03-22T12:10:44.037Z,97617.20
2018-03-22T12:11:50.632Z,97624.38
2018-03-22T12:12:56.147Z,97625.59
2018-03-22T12:14:02.569Z,97630.07
2018-03-22T12:15:09.353Z,97631.33
2018-03-22T12:16:16.937Z,97629.56
2018-03-22T12:17:22.130Z,97636.75
2018-03-22T12:18:27.453Z,97636.72
2018-03-22T12:19:32.520Z,97636.89
2018-03-22T12:20:38.481Z,97635.53
2018-03-22T12:21:44.954Z,97627.55
2018-03-22T12:22:51.687Z,97630.79
2018-03-22T12:23:58.089Z,97631.43
2018-03-22T12:25:03.918Z,97628.09
2018-03-22T12:26:09.032Z,97623.65
2018-03-22T12:27:15.700Z,97621.94
2018-03-22T12:28:21.010Z,97627.75
2018-03-22T12:29:26.803Z,97622.22
2018-03-22T12:30:31.882Z,97617.83
2018-03-22T12:31:37.728Z,97618.16
2018-03-22T12:32:42.736Z,97621.66
2018-03-22T12:33:48.845Z,97620.48
2018-03-22T12:34:53.882Z,97613.36
2018-03-22T12:35:58.882Z,97620.89
2018-03-22T12:37:03.886Z,97618.25
2018-03-22T12:38:09.708Z,97611.60
2018-03-22T12:39:14.756Z,97610.23
2018-03-22T12:40:20.490Z,97609.44
2018-03-22T12:41:26.614Z,97614.66
2018-03-22T12:42:33.268Z,97617.02
2018-03-22T12:43:39.078Z,97622.28
2018-03-22T12:44:44.614Z,97621.39
2018-03-22T12:45:50.158Z,97617.93
2018-03-22T12:46:55.774Z,97619.47
2018-03-22T12:48:00.898Z,97620.52
2018-03-22T12:49:07.755Z,97617.36
2018-03-22T12:50:13.789Z,97615.86
2018-03-22T12:51:19.739Z,97615.26
2018-03-22T12:52:25.171Z,97608.45
2018-03-22T12:53:30.435Z,97605.13
2018-03-22T12:54:36.331Z,97608.59
2018-03-22T12:55:41.580Z,97605.79
2018-03-22T12:56:46.952Z,97602.97
2018-03-22T12:57:51.940Z,97598.71
2018-03-22T12:58:58.655Z,97607.61